Time;durP1;ratioP1;P1;durP2;ratioP2;P2;SDS_P1;SDS_P2;PMS_P1;PMS_P2;Temp;Humidity;BMP_temperature;BMP_pressure;BME280_temperature;BME280_humidity;BME280_pressure;Samples;Min_cycle;Max_cycle;Signal;HPM_P1;HPM_P2
2023/04/01 00:02:07;;;;;;;2.92;2.65;;;10.10;99.90;;;;;;5071989;28;20427;-73
2023/04/01 00:04:33;;;;;;;2.60;2.40;;;10.20;99.90;;;;;;5075697;28;20113;-73
2023/04/01 00:07:00;;;;;;;2.60;2.40;;;10.10;99.90;;;;;;5086171;28;20186;-74
2023/04/01 00:09:26;;;;;;;3.10;2.35;;;10.20;99.90;;;;;;5089529;28;20044;-74
2023/04/01 00:11:51;;;;;;;1.95;1.80;;;10.20;99.90;;;;;;5075014;28;20075;-73
2023/04/01 00:14:17;;;;;;;4.50;2.75;;;10.30;99.90;;;;;;5079947;28;20040;-73
2023/04/01 00:16:43;;;;;;;3.30;2.58;;;10.30;99.90;;;;;;5076803;28;20043;-73
2023/04/01 00:19:09;;;;;;;3.03;2.80;;;10.10;99.90;;;;;;5070202;28;20040;-74
2023/04/01 00:21:35;;;;;;;3.22;2.92;;;10.30;99.90;;;;;;5081180;28;20067;-74
2023/04/01 00:24:01;;;;;;;2.83;2.42;;;10.10;99.90;;;;;;5072433;28;20209;-73
2023/04/01 00:26:26;;;;;;;2.67;2.35;;;10.10;99.90;;;;;;5086023;28;20139;-73
2023/04/01 00:28:52;;;;;;;2.83;2.58;;;10.40;99.90;;;;;;5070956;28;20041;-72
2023/04/01 00:31:18;;;;;;;3.30;3.00;;;10.10;99.90;;;;;;5080632;28;20171;-73
2023/04/01 00:33:44;;;;;;;3.47;2.72;;;10.10;99.90;;;;;;5075117;28;20480;-74
2023/04/01 00:36:18;;;;;;;3.00;2.70;;;10.30;99.90;;;;;;5076868;28;20040;-74
2023/04/01 00:38:44;;;;;;;3.75;2.30;;;10.20;99.90;;;;;;5089277;28;20395;-74
2023/04/01 00:41:15;;;;;;;2.75;2.28;;;10.30;99.90;;;;;;5082714;28;20047;-74
2023/04/01 00:43:46;;;;;;;2.80;2.00;;;10.10;99.90;;;;;;5075251;28;20044;-73
2023/04/01 00:46:12;;;;;;;2.72;2.50;;;10.10;99.90;;;;;;5082403;28;20475;-74
2023/04/01 00:48:58;;;;;;;4.18;2.60;;;10.30;99.90;;;;;;5083349;28;20043;-74
2023/04/01 00:51:29;;;;;;;3.65;2.90;;;10.10;99.90;;;;;;5062437;28;20061;-73
2023/04/01 00:53:57;;;;;;;2.67;2.38;;;10.40;99.90;;;;;;5074696;28;20071;-74
2023/04/01 00:56:30;;;;;;;3.50;3.00;;;10.40;99.90;;;;;;5077982;28;20743;-74
2023/04/01 00:59:08;;;;;;;3.22;2.88;;;10.10;99.90;;;;;;5082396;28;20384;-74
2023/04/01 01:01:35;;;;;;;3.95;3.50;;;10.40;99.90;;;;;;5073546;28;20057;-73
2023/04/01 01:04:02;;;;;;;3.58;3.03;;;10.20;99.90;;;;;;5079176;28;20047;-73
2023/04/01 01:06:46;;;;;;;3.28;2.97;;;10.40;99.90;;;;;;5072719;28;20105;-74
2023/04/01 01:09:34;;;;;;;3.45;2.97;;;10.20;99.90;;;;;;5078322;28;20482;-74
2023/04/01 01:12:05;;;;;;;;;;;10.40;99.90;;;;;;5085633;28;20496;-74
2023/04/01 01:14:52;;;;;;;3.92;3.30;;;10.20;99.90;;;;;;5081330;28;20320;-74
2023/04/01 01:17:18;;;;;;;4.85;2.85;;;10.40;99.90;;;;;;5059140;28;20048;-74
2023/04/01 01:19:53;;;;;;;2.53;2.33;;;10.10;99.90;;;;;;5076416;28;20040;-74
2023/04/01 01:22:52;;;;;;;2.38;2.17;;;10.40;99.90;;;;;;5082752;28;20341;-73
2023/04/01 01:25:28;;;;;;;3.40;3.08;;;10.20;99.90;;;;;;5084862;28;20045;-74
2023/04/01 01:28:31;;;;;;;3.92;2.95;;;10.10;99.90;;;;;;5076746;28;20045;-74
2023/04/01 01:31:05;;;;;;;3.92;3.30;;;10.10;99.90;;;;;;5087083;28;20610;-74
2023/04/01 01:34:15;;;;;;;4.13;3.30;;;10.10;99.90;;;;;;5083672;28;20078;-74
2023/04/01 01:36:45;;;;;;;3.17;2.80;;;10.40;99.90;;;;;;5057847;28;20060;-74
2023/04/01 01:39:13;;;;;;;3.78;3.00;;;10.10;99.90;;;;;;5057227;28;20090;-74
2023/04/01 01:41:41;;;;;;;3.10;2.80;;;10.40;99.90;;;;;;5081348;28;20040;-74
2023/04/01 01:44:10;;;;;;;3.40;3.10;;;10.40;99.90;;;;;;5088167;28;20479;-73
2023/04/01 01:46:38;;;;;;;3.33;3.03;;;10.10;99.90;;;;;;5076528;28;20037;-74
2023/04/01 01:49:06;;;;;;;2.83;2.60;;;10.10;99.90;;;;;;5058658;28;20083;-74
2023/04/01 01:51:33;;;;;;;4.43;3.50;;;10.40;99.90;;;;;;5078538;28;20074;-74
2023/04/01 01:53:59;;;;;;;3.38;3.08;;;10.50;99.90;;;;;;5071052;28;20053;-75
2023/04/01 01:56:29;;;;;;;3.50;3.08;;;10.40;99.90;;;;;;5056265;28;20048;-74
2023/04/01 01:59:02;;;;;;;3.20;2.90;;;10.40;99.90;;;;;;5075230;28;20070;-73
2023/04/01 02:01:31;;;;;;;4.85;4.05;;;10.10;99.90;;;;;;5069029;28;20503;-74
2023/04/01 02:03:58;;;;;;;3.65;3.28;;;10.10;99.90;;;;;;5058882;28;20048;-74
2023/04/01 02:06:28;;;;;;;4.78;3.30;;;10.30;99.90;;;;;;5084507;28;20051;-74
2023/04/01 02:09:03;;;;;;;4.35;3.38;;;10.40;99.90;;;;;;5072647;28;20337;-74
2023/04/01 02:11:52;;;;;;;2.85;2.53;;;10.10;99.90;;;;;;5056268;28;20098;-73
2023/04/01 02:14:23;;;;;;;3.08;2.63;;;10.30;99.90;;;;;;5055597;28;20044;-73
2023/04/01 02:16:57;;;;;;;3.50;3.15;;;10.10;99.90;;;;;;5072112;28;20571;-73
2023/04/01 02:19:32;;;;;;;3.03;2.63;;;10.10;99.90;;;;;;5080994;28;20139;-74
2023/04/01 02:22:01;;;;;;;3.95;3.40;;;10.50;99.90;;;;;;5079420;28;20075;-74
2023/04/01 02:24:29;;;;;;;4.10;3.10;;;10.20;99.90;;;;;;5053791;28;20546;-73
2023/04/01 02:26:55;;;;;;;3.20;2.90;;;10.10;99.90;;;;;;5071042;28;20050;-73
2023/04/01 02:29:24;;;;;;;3.75;3.17;;;10.50;99.90;;;;;;5069098;28;20045;-73
2023/04/01 02:31:52;;;;;;;2.80;2.58;;;10.50;99.90;;;;;;5075053;28;20407;-74
2023/04/01 02:34:19;;;;;;;2.67;2.47;;;10.00;99.90;;;;;;5060535;28;20450;-73
2023/04/01 02:36:46;;;;;;;2.70;2.38;;;10.40;99.90;;;;;;5084804;28;20087;-73
2023/04/01 02:39:13;;;;;;;3.38;2.90;;;10.30;99.90;;;;;;5081276;28;20408;-74
2023/04/01 02:41:44;;;;;;;3.92;3.22;;;10.40;99.90;;;;;;5084908;28;20036;-74
2023/04/01 02:44:12;;;;;;;4.78;4.20;;;10.10;99.90;;;;;;5072294;28;20036;-74
2023/04/01 02:46:39;;;;;;;3.30;2.97;;;10.10;99.90;;;;;;5077953;28;20043;-73
2023/04/01 02:49:05;;;;;;;2.60;2.40;;;10.20;99.90;;;;;;5078806;28;20151;-74
2023/04/01 02:51:31;;;;;;;3.13;2.72;;;10.50;99.90;;;;;;5081524;28;20088;-74
2023/04/01 02:53:56;;;;;;;3.97;3.20;;;10.40;99.90;;;;;;5059869;28;20115;-74
2023/04/01 02:56:22;;;;;;;2.65;2.40;;;10.00;99.90;;;;;;5072295;28;20101;-74
2023/04/01 02:58:48;;;;;;;3.15;2.83;;;10.00;99.90;;;;;;5079693;28;20082;-74
2023/04/01 03:01:14;;;;;;;2.38;2.00;;;10.00;99.90;;;;;;5080649;28;20039;-74
2023/04/01 03:03:40;;;;;;;2.70;2.40;;;10.30;99.90;;;;;;5067566;28;20083;-73
2023/04/01 03:06:12;;;;;;;2.88;2.45;;;10.10;99.90;;;;;;5068390;28;20052;-74
2023/04/01 03:08:38;;;;;;;4.28;3.88;;;10.40;99.90;;;;;;5078517;28;20044;-74
2023/04/01 03:11:03;;;;;;;3.53;3.13;;;10.30;99.90;;;;;;5078399;28;20063;-73
2023/04/01 03:13:29;;;;;;;3.67;3.08;;;10.20;99.90;;;;;;5054904;28;20043;-74
2023/04/01 03:15:55;;;;;;;2.75;2.55;;;10.30;99.90;;;;;;5073674;28;20052;-74
2023/04/01 03:18:21;;;;;;;4.25;3.85;;;10.30;99.90;;;;;;5079094;28;20066;-74
2023/04/01 03:20:46;;;;;;;4.55;3.45;;;10.00;99.90;;;;;;5079846;28;20077;-75
2023/04/01 03:23:13;;;;;;;5.03;4.00;;;10.20;99.90;;;;;;5080826;28;20047;-74
2023/04/01 03:25:38;;;;;;;6.10;5.40;;;10.10;99.90;;;;;;5074668;28;20100;-74
2023/04/01 03:28:04;;;;;;;7.00;6.30;;;10.00;99.90;;;;;;5082559;28;20123;-74
2023/04/01 03:30:31;;;;;;;5.70;5.20;;;10.30;99.90;;;;;;5081369;28;20051;-74
2023/04/01 03:32:58;;;;;;;7.70;6.90;;;10.40;99.90;;;;;;5082076;28;20051;-74
2023/04/01 03:35:24;;;;;;;5.93;5.40;;;10.00;99.90;;;;;;5091419;28;20094;-74
2023/04/01 03:37:54;;;;;;;6.88;5.63;;;10.30;99.90;;;;;;5087901;28;20141;-74
2023/04/01 03:40:20;;;;;;;5.43;4.70;;;10.30;99.90;;;;;;5083057;28;20051;-74
2023/04/01 03:42:46;;;;;;;5.78;5.25;;;9.90;99.90;;;;;;5088053;28;20042;-74
2023/04/01 03:45:12;;;;;;;6.72;6.00;;;10.20;99.90;;;;;;5080340;28;20036;-74
2023/04/01 03:47:39;;;;;;;5.95;5.35;;;10.10;99.90;;;;;;5083825;28;20056;-74
2023/04/01 03:50:06;;;;;;;6.40;5.80;;;10.40;99.90;;;;;;5089841;28;20040;-74
2023/04/01 03:52:32;;;;;;;5.43;4.90;;;10.40;99.90;;;;;;5071381;28;20043;-74
2023/04/01 03:54:58;;;;;;;6.57;4.70;;;9.90;99.90;;;;;;5088321;28;20043;-74
2023/04/01 03:57:23;;;;;;;4.88;4.47;;;9.90;99.90;;;;;;5077550;28;20112;-74
2023/04/01 03:59:49;;;;;;;6.72;4.97;;;9.90;99.90;;;;;;5077233;28;20117;-74
2023/04/01 04:02:15;;;;;;;7.03;6.32;;;10.30;99.90;;;;;;5073610;28;20135;-74
2023/04/01 04:04:41;;;;;;;7.68;6.88;;;10.40;99.90;;;;;;5059090;28;20045;-74
2023/04/01 04:07:07;;;;;;;7.80;7.00;;;10.40;99.90;;;;;;5085047;28;20531;-74
2023/04/01 04:09:33;;;;;;;7.43;6.63;;;10.40;99.90;;;;;;5086115;28;20467;-74
2023/04/01 04:11:59;;;;;;;6.03;5.43;;;10.10;99.90;;;;;;5057954;28;20044;-75
2023/04/01 04:14:25;;;;;;;6.43;5.82;;;10.00;99.90;;;;;;5078533;28;20092;-74
2023/04/01 04:16:51;;;;;;;6.55;5.82;;;9.80;99.90;;;;;;5082151;28;20037;-74
2023/04/01 04:19:16;;;;;;;5.75;5.25;;;9.80;99.90;;;;;;5078796;28;20136;-74
2023/04/01 04:21:42;;;;;;;7.43;6.25;;;9.90;99.90;;;;;;5066323;28;20040;-74
2023/04/01 04:24:09;;;;;;;8.55;7.55;;;9.80;99.90;;;;;;5080431;28;20131;-73
2023/04/01 04:26:35;;;;;;;8.60;6.40;;;10.40;99.90;;;;;;5072758;28;20044;-74
2023/04/01 04:29:01;;;;;;;9.95;8.68;;;10.00;99.90;;;;;;5077568;28;20136;-73
2023/04/01 04:31:26;;;;;;;8.23;7.35;;;10.10;99.90;;;;;;5084803;28;20043;-74
2023/04/01 04:33:53;;;;;;;8.00;7.20;;;10.10;99.90;;;;;;5091316;28;20044;-74
2023/04/01 04:36:20;;;;;;;5.60;5.00;;;10.40;99.90;;;;;;5089886;28;20083;-74
2023/04/01 04:38:46;;;;;;;6.30;5.70;;;9.80;99.90;;;;;;5076707;28;20052;-74
2023/04/01 04:41:13;;;;;;;;;;;10.30;99.90;;;;;;5073432;28;20036;-74
2023/04/01 04:43:40;;;;;;;7.43;6.33;;;10.00;99.90;;;;;;5089984;28;19916;-74
2023/04/01 04:46:07;;;;;;;6.97;6.30;;;10.00;99.90;;;;;;5086400;28;20373;-74
2023/04/01 04:48:33;;;;;;;8.65;7.75;;;10.50;99.90;;;;;;5079734;28;20083;-74
2023/04/01 04:50:59;;;;;;;6.95;6.25;;;10.50;99.90;;;;;;5090959;28;20083;-74
2023/04/01 04:53:25;;;;;;;7.88;7.07;;;10.20;99.90;;;;;;5082875;28;20064;-74
2023/04/01 04:55:52;;;;;;;9.85;8.85;;;10.10;99.90;;;;;;5086760;28;20040;-74
2023/04/01 04:58:18;;;;;;;9.25;7.55;;;10.10;99.90;;;;;;5087784;28;20055;-75
2023/04/01 05:00:44;;;;;;;9.60;8.48;;;10.00;99.90;;;;;;5076014;28;20043;-74
2023/04/01 05:03:11;;;;;;;8.90;8.02;;;10.10;99.90;;;;;;5074247;28;20052;-74
2023/04/01 05:05:36;;;;;;;10.30;9.30;;;10.20;99.90;;;;;;5074677;28;20048;-74
2023/04/01 05:08:03;;;;;;;9.55;8.50;;;10.40;99.90;;;;;;5054442;28;20209;-74
2023/04/01 05:10:29;;;;;;;8.00;7.20;;;10.20;99.90;;;;;;5066594;28;20140;-74
2023/04/01 05:12:55;;;;;;;6.15;5.45;;;10.50;99.90;;;;;;5056149;28;20500;-74
2023/04/01 05:15:20;;;;;;;7.05;6.35;;;10.10;99.90;;;;;;5061731;28;20040;-75
2023/04/01 05:17:46;;;;;;;9.73;7.35;;;10.00;99.90;;;;;;5040415;28;20052;-75
2023/04/01 05:20:13;;;;;;;8.73;7.82;;;10.60;99.90;;;;;;5078701;28;20040;-76
2023/04/01 05:22:39;;;;;;;9.65;8.50;;;9.90;99.90;;;;;;5083698;28;20070;-75
2023/04/01 05:25:05;;;;;;;7.20;6.50;;;10.00;99.90;;;;;;5082678;28;20490;-75
2023/04/01 05:27:31;;;;;;;8.60;7.80;;;10.70;99.90;;;;;;5054343;28;20104;-74
2023/04/01 05:29:57;;;;;;;8.52;7.72;;;10.30;99.90;;;;;;5075087;28;20040;-74
2023/04/01 05:32:23;;;;;;;7.30;6.60;;;10.50;99.90;;;;;;5080601;28;20040;-74
2023/04/01 05:34:53;;;;;;;8.65;7.75;;;10.50;99.90;;;;;;5083875;28;20059;-74
2023/04/01 05:37:19;;;;;;;8.23;7.43;;;10.20;99.90;;;;;;5070489;28;20111;-74
2023/04/01 05:39:45;;;;;;;8.23;7.43;;;10.70;99.90;;;;;;5080740;28;20390;-74
2023/04/01 05:42:11;;;;;;;7.57;6.78;;;10.20;99.90;;;;;;5077939;28;20040;-74
2023/04/01 05:44:37;;;;;;;9.43;8.50;;;10.00;99.90;;;;;;5083027;28;20556;-74
2023/04/01 05:47:04;;;;;;;7.30;6.60;;;10.80;99.90;;;;;;5074575;28;20066;-75
2023/04/01 05:49:30;;;;;;;7.15;6.43;;;10.80;99.90;;;;;;5079054;28;20141;-76
2023/04/01 05:51:56;;;;;;;8.52;7.68;;;9.90;99.90;;;;;;5056872;28;20106;-75
2023/04/01 05:54:22;;;;;;;7.25;6.57;;;10.60;99.90;;;;;;5073714;28;20036;-75
2023/04/01 05:56:48;;;;;;;8.32;7.53;;;9.80;99.90;;;;;;5073016;28;20067;-76
2023/04/01 05:59:14;;;;;;;6.43;5.75;;;9.90;99.90;;;;;;5075953;28;20127;-76
2023/04/01 06:01:39;;;;;;;6.90;6.30;;;9.90;99.90;;;;;;5039605;28;20033;-71
2023/04/01 06:04:05;;;;;;;8.43;6.32;;;10.00;99.90;;;;;;5057756;28;20040;-71
2023/04/01 06:06:32;;;;;;;7.63;6.75;;;10.60;99.90;;;;;;5039306;28;20518;-70
2023/04/01 06:09:07;;;;;;;7.30;5.97;;;10.30;99.90;;;;;;5063251;28;20373;-70
2023/04/01 06:12:18;;;;;;;6.60;5.90;;;10.90;99.90;;;;;;5057064;28;20039;-70
2023/04/01 06:15:25;;;;;;;5.75;5.25;;;10.00;99.90;;;;;;5067012;28;20059;-70
2023/04/01 06:18:09;;;;;;;5.78;5.28;;;10.00;99.90;;;;;;5073346;28;20052;-70
2023/04/01 06:20:44;;;;;;;6.63;5.90;;;9.90;99.90;;;;;;5081984;28;20068;-75
2023/04/01 06:23:40;;;;;;;5.68;5.18;;;11.00;99.90;;;;;;5082828;28;20134;-76
2023/04/01 06:26:18;;;;;;;9.80;8.90;;;10.50;99.90;;;;;;5075104;28;20133;-75
2023/04/01 06:28:58;;;;;;;7.70;6.90;;;10.40;99.90;;;;;;5070185;28;20415;-75
2023/04/01 06:32:01;;;;;;;9.13;8.02;;;10.60;99.90;;;;;;5073909;28;20041;-75
2023/04/01 06:34:48;;;;;;;9.90;8.90;;;10.10;99.90;;;;;;5074440;28;20408;-75
2023/04/01 06:37:51;;;;;;;8.80;7.88;;;10.00;99.90;;;;;;5080669;28;20048;-76
2023/04/01 06:40:21;;;;;;;7.28;6.28;;;10.90;99.90;;;;;;5083706;28;20075;-76
2023/04/01 06:43:00;;;;;;;9.27;8.35;;;11.20;99.90;;;;;;5082254;28;20138;-77
2023/04/01 06:45:44;;;;;;;10.40;9.30;;;11.00;99.90;;;;;;5073975;28;20102;-77
2023/04/01 06:48:16;;;;;;;8.70;7.90;;;11.20;99.90;;;;;;5077663;28;20036;-76
2023/04/01 06:51:08;;;;;;;8.25;7.22;;;10.10;99.90;;;;;;5080163;28;20073;-70
2023/04/01 06:53:52;;;;;;;8.45;7.65;;;10.20;99.90;;;;;;5056379;28;20129;-71
2023/04/01 06:56:21;;;;;;;11.88;10.68;;;10.20;99.90;;;;;;5073153;28;20048;-71
2023/04/01 06:59:10;;;;;;;12.38;11.07;;;10.60;99.90;;;;;;5077521;28;20063;-71
2023/04/01 07:01:41;;;;;;;9.80;8.82;;;10.30;99.90;;;;;;5081472;28;20353;-71
2023/04/01 07:04:32;;;;;;;11.48;9.68;;;10.40;99.90;;;;;;5073625;28;20133;-76
2023/04/01 07:07:14;;;;;;;11.27;10.07;;;11.10;99.90;;;;;;5070353;28;20103;-75
2023/04/01 07:09:45;;;;;;;9.02;8.13;;;10.20;99.90;;;;;;5083317;28;20093;-77
2023/04/01 07:12:35;;;;;;;8.07;7.30;;;11.00;99.90;;;;;;5081946;28;20045;-76
2023/04/01 07:15:26;;;;;;;8.45;7.65;;;11.20;99.90;;;;;;5054637;28;20209;-75
2023/04/01 07:18:01;;;;;;;9.48;8.40;;;10.40;99.90;;;;;;5077834;28;20397;-76
2023/04/01 07:20:31;;;;;;;7.00;6.30;;;11.10;99.90;;;;;;5056389;28;20049;-76
2023/04/01 07:23:00;;;;;;;14.43;11.63;;;10.30;99.90;;;;;;5070886;28;20102;-77
2023/04/01 07:25:38;;;;;;;12.35;11.15;;;10.40;99.90;;;;;;5071743;28;20036;-75
2023/04/01 07:28:10;;;;;;;11.63;10.43;;;10.60;99.90;;;;;;5080455;28;20106;-76
2023/04/01 07:30:56;;;;;;;11.82;10.60;;;10.30;99.90;;;;;;5080212;28;20071;-75
2023/04/01 07:33:33;;;;;;;11.45;10.23;;;11.10;99.90;;;;;;5075402;28;20128;-75
2023/04/01 07:35:58;;;;;;;;;;;10.80;99.90;;;;;;5076492;28;20033;-75
2023/04/01 07:38:36;;;;;;;12.73;11.32;;;11.20;99.90;;;;;;5075154;28;19980;-76
2023/04/01 07:41:40;;;;;;;13.27;11.93;;;11.20;99.90;;;;;;5073869;28;20068;-75
2023/04/01 07:44:27;;;;;;;12.30;11.07;;;11.20;99.90;;;;;;5071716;28;20048;-75
2023/04/01 07:47:13;;;;;;;;;;;11.00;99.90;;;;;;5076913;28;20033;-75
2023/04/01 07:50:04;;;;;;;12.40;11.20;;;11.00;99.90;;;;;;5070691;28;20310;-75
2023/04/01 07:52:43;;;;;;;10.10;9.10;;;10.40;99.90;;;;;;5069224;28;20095;-75
2023/04/01 07:55:27;;;;;;;9.75;8.75;;;11.30;99.90;;;;;;5072543;28;20076;-75
2023/04/01 07:58:26;;;;;;;11.80;9.98;;;11.30;99.90;;;;;;5067019;28;20049;-75
2023/04/01 08:01:17;;;;;;;11.80;10.60;;;11.00;99.90;;;;;;5075143;28;20052;-76
2023/04/01 08:04:03;;;;;;;13.38;11.60;;;11.10;99.90;;;;;;5076449;28;20100;-76
2023/04/01 08:06:42;;;;;;;10.70;9.68;;;10.50;99.90;;;;;;5076676;28;20037;-75
2023/04/01 08:09:33;;;;;;;9.07;8.10;;;10.50;99.90;;;;;;5070946;28;20036;-76
2023/04/01 08:12:09;;;;;;;11.30;10.10;;;11.20;99.90;;;;;;5063564;28;20055;-76
2023/04/01 08:14:47;;;;;;;11.57;10.13;;;11.00;99.90;;;;;;5079600;28;20047;-76
2023/04/01 08:17:41;;;;;;;14.15;12.27;;;11.20;99.90;;;;;;5081237;28;20048;-75
2023/04/01 08:20:19;;;;;;;12.48;11.18;;;11.20;99.90;;;;;;5076720;28;20558;-76
2023/04/01 08:23:10;;;;;;;12.68;11.38;;;10.80;99.90;;;;;;5073680;28;20044;-76
2023/04/01 08:25:42;;;;;;;10.90;9.80;;;11.30;99.90;;;;;;5083288;28;20044;-74
2023/04/01 08:28:30;;;;;;;12.38;11.00;;;11.40;99.90;;;;;;5076770;28;20387;-75
2023/04/01 08:31:02;;;;;;;11.68;10.48;;;11.10;99.90;;;;;;5073507;28;20048;-75
2023/04/01 08:33:32;;;;;;;10.23;9.15;;;11.20;99.90;;;;;;5062511;28;20490;-74
2023/04/01 08:36:07;;;;;;;11.40;10.20;;;11.70;99.90;;;;;;5075892;28;20135;-75
2023/04/01 08:38:52;;;;;;;12.80;10.50;;;11.70;99.90;;;;;;5073538;28;20071;-75
2023/04/01 08:41:29;;;;;;;9.15;8.25;;;11.60;99.90;;;;;;5073892;28;20037;-76
2023/04/01 08:44:12;;;;;;;9.02;8.13;;;11.70;99.90;;;;;;5074105;28;20044;-76
2023/04/01 08:47:03;;;;;;;8.07;7.28;;;11.80;99.90;;;;;;5077551;28;20040;-76
2023/04/01 08:49:47;;;;;;;10.95;9.52;;;12.00;99.90;;;;;;5052797;28;20511;-76
2023/04/01 08:52:21;;;;;;;10.57;9.50;;;12.10;99.90;;;;;;5074842;28;20048;-75
2023/04/01 08:55:21;;;;;;;9.20;8.30;;;12.00;99.90;;;;;;5071513;28;20484;-77
2023/04/01 08:57:50;;;;;;;9.68;8.68;;;11.90;99.90;;;;;;5072283;28;20043;-76
2023/04/01 09:00:41;;;;;;;11.10;9.07;;;11.80;99.90;;;;;;5062653;28;20067;-77
2023/04/01 09:03:47;;;;;;;7.75;6.65;;;11.80;99.90;;;;;;5068733;28;20067;-76
2023/04/01 09:06:35;;;;;;;5.72;4.82;;;11.50;99.90;;;;;;5064479;28;20442;-76
2023/04/01 09:09:31;;;;;;;5.88;5.03;;;11.40;99.90;;;;;;5053482;28;20051;-76
2023/04/01 09:12:26;;;;;;;6.28;4.60;;;11.10;99.90;;;;;;5077052;28;20040;-75
2023/04/01 09:15:01;;;;;;;6.22;4.47;;;11.20;99.90;;;;;;5074708;28;20047;-75
2023/04/01 09:17:30;;;;;;;5.43;4.80;;;10.90;99.90;;;;;;5058394;28;20037;-76
2023/04/01 09:20:25;;;;;;;5.63;4.65;;;10.70;99.90;;;;;;5070440;28;20224;-75
2023/04/01 09:23:21;;;;;;;6.25;4.00;;;10.90;99.90;;;;;;5073259;28;20079;-76
2023/04/01 09:26:08;;;;;;;5.85;3.97;;;10.80;99.90;;;;;;5078572;28;20112;-76
2023/04/01 09:28:47;;;;;;;4.28;2.95;;;10.80;99.90;;;;;;5075817;28;20116;-77
2023/04/01 09:31:40;;;;;;;3.95;2.90;;;10.70;99.90;;;;;;5076454;28;20044;-77
2023/04/01 09:34:06;;;;;;;3.35;2.75;;;10.60;99.90;;;;;;5073745;28;20515;-76
2023/04/01 09:36:32;;;;;;;3.50;2.50;;;10.40;99.90;;;;;;5085186;28;20118;-77
2023/04/01 09:39:36;;;;;;;3.92;2.25;;;10.50;99.90;;;;;;5082929;28;20035;-77
2023/04/01 09:42:29;;;;;;;3.30;2.50;;;10.40;99.90;;;;;;5058283;28;20064;-77
2023/04/01 09:44:59;;;;;;;3.35;2.38;;;10.60;99.90;;;;;;5076394;28;20380;-77
2023/04/01 09:47:40;;;;;;;2.47;2.10;;;10.60;99.90;;;;;;5072863;28;20032;-77
2023/04/01 09:50:47;;;;;;;3.30;2.50;;;10.60;99.90;;;;;;5074794;28;20048;-75
2023/04/01 09:53:40;;;;;;;4.32;2.50;;;10.60;99.90;;;;;;5073902;28;20484;-78
2023/04/01 09:56:24;;;;;;;3.67;2.53;;;10.60;99.90;;;;;;5057096;28;20063;-77
2023/04/01 09:59:18;;;;;;;3.42;2.17;;;10.60;99.90;;;;;;5097290;28;20037;-76
2023/04/01 10:02:26;;;;;;;3.53;2.00;;;10.50;99.90;;;;;;5059373;28;20071;-76
2023/04/01 10:05:26;;;;;;;3.28;2.55;;;10.40;99.90;;;;;;5077149;28;20072;-76
2023/04/01 10:08:18;;;;;;;3.03;2.50;;;10.40;99.90;;;;;;5075650;28;20102;-76
2023/04/01 10:11:21;;;;;;;3.53;2.70;;;10.40;99.90;;;;;;5055940;28;20444;-76
2023/04/01 10:13:46;;;;;;;2.85;2.45;;;10.40;99.90;;;;;;5078885;28;20044;-75
2023/04/01 10:16:30;;;;;;;3.05;2.33;;;10.40;99.90;;;;;;5076189;28;20037;-75
2023/04/01 10:19:49;;;;;;;3.08;2.40;;;10.50;99.90;;;;;;5078884;28;20040;-73
2023/04/01 10:22:36;;;;;;;2.95;2.00;;;10.50;99.90;;;;;;5052138;28;20059;-74
2023/04/01 10:25:20;;;;;;;2.88;2.17;;;10.40;99.90;;;;;;5071329;28;20116;-74
2023/04/01 10:28:05;;;;;;;2.35;2.00;;;10.30;99.90;;;;;;5081647;28;20554;-75
2023/04/01 10:30:58;;;;;;;3.00;1.90;;;10.30;99.90;;;;;;5067392;28;20066;-75
2023/04/01 10:33:33;;;;;;;2.33;1.80;;;10.30;99.90;;;;;;5075888;28;20070;-75
2023/04/01 10:36:30;;;;;;;2.38;1.65;;;10.20;99.90;;;;;;5071307;28;20481;-74
2023/04/01 10:39:11;;;;;;;2.72;1.70;;;10.30;99.90;;;;;;5075520;28;20055;-74
2023/04/01 10:42:01;;;;;;;2.72;1.75;;;10.20;99.90;;;;;;5081933;28;20174;-75
2023/04/01 10:44:31;;;;;;;1.70;1.40;;;10.20;99.90;;;;;;5078476;28;20047;-75
2023/04/01 10:47:18;;;;;;;1.80;1.50;;;10.20;99.90;;;;;;5082032;28;20040;-75
2023/04/01 10:50:14;;;;;;;2.78;1.65;;;10.30;99.90;;;;;;5079181;28;20047;-75
2023/04/01 10:53:05;;;;;;;2.03;1.38;;;10.40;99.90;;;;;;5083344;28;20040;-75
2023/04/01 10:55:50;;;;;;;3.42;1.48;;;10.30;99.90;;;;;;5061320;28;20089;-75
2023/04/01 10:58:46;;;;;;;2.58;1.30;;;10.30;99.90;;;;;;5078727;28;20056;-74
2023/04/01 11:01:35;;;;;;;2.60;1.50;;;10.30;99.90;;;;;;5075975;28;20051;-74
2023/04/01 11:04:56;;;;;;;2.15;1.50;;;10.40;99.90;;;;;;5082917;28;20083;-75
2023/04/01 11:07:46;;;;;;;1.95;1.60;;;10.20;99.90;;;;;;5071923;28;20045;-75
2023/04/01 11:10:36;;;;;;;2.45;1.80;;;10.20;99.90;;;;;;5078167;28;20048;-74
2023/04/01 11:13:24;;;;;;;1.60;1.50;;;10.30;99.90;;;;;;5061210;28;20044;-74
2023/04/01 11:16:13;;;;;;;3.47;2.10;;;10.20;99.90;;;;;;5074370;28;20462;-74
2023/04/01 11:19:13;;;;;;;2.88;1.90;;;10.20;99.90;;;;;;5075287;28;20033;-73
2023/04/01 11:22:09;;;;;;;3.30;1.90;;;10.20;99.90;;;;;;5071310;28;20040;-74
2023/04/01 11:24:38;;;;;;;2.63;1.95;;;10.10;99.90;;;;;;5069237;28;20048;-74
2023/04/01 11:27:37;;;;;;;2.58;1.92;;;10.10;99.90;;;;;;5075857;28;20138;-75
2023/04/01 11:30:06;;;;;;;1.90;1.60;;;10.00;99.90;;;;;;5066716;28;20484;-74
2023/04/01 11:32:53;;;;;;;2.00;1.50;;;10.00;99.90;;;;;;5072121;28;20064;-75
2023/04/01 11:35:51;;;;;;;2.05;1.52;;;10.00;99.90;;;;;;5079930;28;20426;-74
2023/04/01 11:38:39;;;;;;;2.13;1.40;;;10.10;99.90;;;;;;5083255;28;20105;-75
2023/04/01 11:41:32;;;;;;;3.03;1.80;;;10.20;99.90;;;;;;5077691;28;20130;-76
2023/04/01 11:44:01;;;;;;;3.10;1.80;;;10.30;99.90;;;;;;5086780;28;20134;-74
2023/04/01 11:46:46;;;;;;;2.13;1.50;;;10.30;99.90;;;;;;5075438;28;20413;-70
2023/04/01 11:49:18;;;;;;;2.25;1.58;;;10.50;99.90;;;;;;5068211;28;20079;-70
2023/04/01 11:52:15;;;;;;;2.53;1.67;;;10.50;99.90;;;;;;5083479;28;20044;-71
2023/04/01 11:55:04;;;;;;;1.80;1.30;;;10.50;99.90;;;;;;5087699;28;20067;-70
2023/04/01 11:58:08;;;;;;;2.28;1.50;;;10.50;99.90;;;;;;5080991;28;20043;-71
2023/04/01 12:01:09;;;;;;;1.40;1.15;;;10.60;99.90;;;;;;5082745;28;20046;-70
2023/04/01 12:03:56;;;;;;;2.78;1.60;;;10.60;99.90;;;;;;5079560;28;20064;-71
2023/04/01 12:06:25;;;;;;;;;;;10.70;99.90;;;;;;5078028;28;20049;-71
2023/04/01 12:09:06;;;;;;;1.50;1.40;;;10.60;99.90;;;;;;5073963;28;19916;-70
2023/04/01 12:11:41;;;;;;;2.03;1.50;;;10.60;99.90;;;;;;5076910;28;20482;-71
2023/04/01 12:14:43;;;;;;;2.42;1.45;;;10.50;99.90;;;;;;5076062;28;20082;-71
2023/04/01 12:17:26;;;;;;;1.88;1.58;;;10.50;99.90;;;;;;5054704;28;20097;-70
2023/04/01 12:20:23;;;;;;;1.92;1.58;;;10.50;99.90;;;;;;5075067;28;20131;-70
2023/04/01 12:23:11;;;;;;;2.83;1.57;;;10.50;99.90;;;;;;5075812;28;20044;-71
2023/04/01 12:25:55;;;;;;;1.88;1.30;;;10.40;99.90;;;;;;5064465;28;20080;-71
2023/04/01 12:28:41;;;;;;;2.35;1.58;;;10.40;99.90;;;;;;5088531;28;20047;-71
2023/04/01 12:31:27;;;;;;;4.57;1.92;;;10.40;99.90;;;;;;5085483;28;20052;-70
2023/04/01 12:34:30;;;;;;;2.28;1.33;;;10.40;99.90;;;;;;5072065;28;20496;-71
2023/04/01 12:37:38;;;;;;;1.73;1.48;;;10.50;99.90;;;;;;5078143;28;20498;-70
2023/04/01 12:40:28;;;;;;;2.13;1.70;;;10.60;99.90;;;;;;5068743;28;20169;-70
2023/04/01 12:43:12;;;;;;;3.60;1.40;;;10.60;99.90;;;;;;5071057;28;20792;-70
2023/04/01 12:46:05;;;;;;;4.78;1.67;;;10.50;99.90;;;;;;5081459;28;20079;-69
2023/04/01 12:48:31;;;;;;;1.90;1.20;;;10.30;99.90;;;;;;5083506;28;20040;-69
2023/04/01 12:51:20;;;;;;;2.03;1.48;;;10.30;99.90;;;;;;5069078;28;20048;-70
2023/04/01 12:54:16;;;;;;;2.83;1.55;;;10.30;99.90;;;;;;5056590;28;20106;-70
2023/04/01 12:57:09;;;;;;;3.05;1.30;;;10.30;99.90;;;;;;5081996;28;20036;-69
2023/04/01 12:59:44;;;;;;;1.67;1.30;;;10.30;99.90;;;;;;5081552;28;20041;-70
2023/04/01 13:02:29;;;;;;;1.73;1.30;;;10.30;99.90;;;;;;5077913;28;20510;-71
2023/04/01 13:05:14;;;;;;;2.13;1.40;;;10.30;99.90;;;;;;5075769;28;20074;-70
2023/04/01 13:07:53;;;;;;;2.20;1.60;;;10.40;99.90;;;;;;5085274;28;20047;-71
2023/04/01 13:10:50;;;;;;;1.80;1.30;;;10.50;99.90;;;;;;5087603;28;20071;-71
2023/04/01 13:13:27;;;;;;;2.92;1.50;;;10.50;99.90;;;;;;5080617;28;20043;-71
2023/04/01 13:16:25;;;;;;;1.65;1.30;;;10.40;99.90;;;;;;5091502;28;20068;-71
2023/04/01 13:18:51;;;;;;;1.52;1.42;;;10.50;99.90;;;;;;5081915;28;20079;-71
2023/04/01 13:21:41;;;;;;;2.25;1.20;;;10.40;99.90;;;;;;5085480;28;20522;-72
2023/04/01 13:24:34;;;;;;;1.50;1.20;;;10.40;99.90;;;;;;5088693;28;20614;-72
2023/04/01 13:27:21;;;;;;;1.88;1.30;;;10.30;99.90;;;;;;5075148;28;20059;-71
2023/04/01 13:30:02;;;;;;;1.83;1.30;;;10.40;99.90;;;;;;5079957;28;20044;-72
2023/04/01 13:32:39;;;;;;;2.17;1.40;;;10.30;99.90;;;;;;5074703;28;20044;-71
2023/04/01 13:35:29;;;;;;;2.00;1.30;;;10.20;99.90;;;;;;5080024;28;20044;-71
2023/04/01 13:38:22;;;;;;;1.33;1.20;;;10.30;99.90;;;;;;5078520;28;20040;-71
2023/04/01 13:41:07;;;;;;;3.78;1.35;;;10.30;99.90;;;;;;5076215;28;20051;-72
2023/04/01 13:43:48;;;;;;;2.63;1.20;;;10.40;99.90;;;;;;5068127;28;20096;-72